Time;durP1;ratioP1;P1;durP2;ratioP2;P2;SDS_P1;SDS_P2;PMS_P1;PMS_P2;Temp;Humidity;BMP_temperature;BMP_pressure;BME280_temperature;BME280_humidity;BME280_pressure;Samples;Min_cycle;Max_cycle;Signal;HPM_P1;HPM_P2
2021/08/21 00:00:15;;;;;;;;;;;;;;;;;;;;;
2021/08/21 00:17:03;;;;;;;;;;;;;;;;;;;;;
2021/08/21 00:27:26;;;;;;;;;;;;;;;;;;;;;
2021/08/21 00:33:49;;;;;;;1.17;1.00;;;16.50;99.90;;;;;;4734023;29;20526;-88
2021/08/21 00:43:12;;;;;;;0.63;0.63;;;16.40;99.90;;;;;;4822704;29;20464;-88
2021/08/21 00:53:11;;;;;;;2.10;0.70;;;16.30;99.90;;;;;;4777280;29;20491;-88
2021/08/21 00:56:20;;;;;;;;;;;;;;;;;;;;;
2021/08/21 00:59:05;;;;;;;1.00;0.87;;;16.30;99.90;;;;;;4862147;29;20470;-88
2021/08/21 01:12:02;;;;;;;0.83;0.70;;;16.30;99.90;;;;;;4788395;29;20460;-88
2021/08/21 01:24:41;;;;;;;2.13;0.83;;;16.20;99.90;;;;;;4836215;29;20457;-88
2021/08/21 01:33:22;;;;;;;2.77;0.70;;;16.10;99.90;;;;;;4882202;29;20473;-88
2021/08/21 01:36:08;;;;;;;0.80;0.70;;;16.00;99.90;;;;;;4882529;29;20497;-88
2021/08/21 01:39:06;;;;;;;0.80;0.80;;;16.00;99.90;;;;;;4882512;29;20482;-88
2021/08/21 01:41:33;;;;;;;2.20;1.17;;;16.00;99.90;;;;;;4878458;29;20546;-87
2021/08/21 01:44:32;;;;;;;1.40;0.80;;;16.00;99.90;;;;;;4882270;29;20490;-88
2021/08/21 01:47:06;;;;;;;1.13;1.13;;;15.90;99.90;;;;;;4882267;29;20438;-88
2021/08/21 01:50:04;;;;;;;0.97;0.97;;;15.90;99.90;;;;;;4865517;29;20450;-87
2021/08/21 01:52:31;;;;;;;2.50;1.00;;;15.80;99.90;;;;;;4860636;29;20505;-87
2021/08/21 02:00:38;;;;;;;1.83;0.90;;;15.70;99.90;;;;;;4881420;29;20466;-88
2021/08/21 02:03:07;;;;;;;1.00;0.90;;;15.70;99.90;;;;;;4882158;29;20469;-88
2021/08/21 02:05:55;;;;;;;2.23;0.90;;;15.60;99.90;;;;;;4864999;29;20461;-88
2021/08/21 02:08:37;;;;;;;2.03;0.87;;;15.60;99.90;;;;;;4882091;29;20536;-88
2021/08/21 02:11:27;;;;;;;3.47;0.97;;;15.60;99.90;;;;;;4881554;29;20461;-88
2021/08/21 02:17:31;;;;;;;2.43;1.00;;;15.50;99.90;;;;;;4847164;29;20934;-88
2021/08/21 02:20:11;;;;;;;0.77;0.70;;;15.50;99.90;;;;;;4881669;29;20438;-88
2021/08/21 02:22:44;;;;;;;1.07;0.77;;;15.50;99.90;;;;;;4880426;29;20564;-88
2021/08/21 02:25:17;;;;;;;1.60;1.10;;;15.50;99.90;;;;;;4881818;29;21030;-88
2021/08/21 02:28:18;;;;;;;1.13;1.03;;;15.50;99.90;;;;;;4881350;29;20526;-85
2021/08/21 02:30:46;;;;;;;0.73;0.73;;;15.50;99.90;;;;;;4881355;29;20434;-85
2021/08/21 02:33:14;;;;;;;0.90;0.80;;;15.50;99.90;;;;;;4864191;29;20832;-84
2021/08/21 02:36:01;;;;;;;0.60;0.60;;;15.50;99.90;;;;;;4879949;29;20485;-85
2021/08/21 02:38:38;;;;;;;2.87;1.20;;;15.40;99.90;;;;;;4880795;29;20974;-84
2021/08/21 02:41:20;;;;;;;2.33;1.40;;;15.50;99.90;;;;;;4880818;29;20518;-85
2021/08/21 02:43:47;;;;;;;1.07;1.07;;;15.50;99.90;;;;;;4880560;29;20477;-85
2021/08/21 02:46:14;;;;;;;1.30;0.70;;;15.50;99.90;;;;;;4880657;29;20537;-85
2021/08/21 02:49:05;;;;;;;2.83;1.50;;;15.50;99.90;;;;;;4880858;29;20458;-85
2021/08/21 02:52:02;;;;;;;2.40;1.33;;;15.40;99.90;;;;;;4865137;29;20465;-85
2021/08/21 02:54:35;;;;;;;0.63;0.63;;;15.40;99.90;;;;;;4879909;29;20522;-85
2021/08/21 02:57:23;;;;;;;1.50;0.90;;;15.40;99.90;;;;;;4880834;29;20442;-85
2021/08/21 03:02:54;;;;;;;1.80;1.03;;;15.30;99.90;;;;;;4879166;29;20577;-84
2021/08/21 03:05:52;;;;;;;0.60;0.60;;;15.30;99.90;;;;;;4880815;29;20836;-88
2021/08/21 03:08:26;;;;;;;1.90;0.60;;;15.30;99.90;;;;;;4881197;29;20890;-88
2021/08/21 03:11:18;;;;;;;0.40;0.40;;;15.30;99.90;;;;;;4881188;29;20430;-88
2021/08/21 03:13:54;;;;;;;2.67;0.80;;;15.20;99.90;;;;;;4880816;29;20454;-88
2021/08/21 03:16:21;;;;;;;1.57;0.70;;;15.20;99.90;;;;;;4892929;29;21028;-88
2021/08/21 03:18:57;;;;;;;0.60;0.50;;;15.20;99.90;;;;;;4899322;29;20437;-88
2021/08/21 03:21:37;;;;;;;1.60;1.30;;;15.20;99.90;;;;;;4899772;29;20948;-88
2021/08/21 03:24:06;;;;;;;1.07;0.80;;;15.20;99.90;;;;;;4900304;29;20480;-88
2021/08/21 03:26:33;;;;;;;1.53;0.97;;;15.20;99.90;;;;;;4899315;29;20457;-88
2021/08/21 03:29:06;;;;;;;1.37;0.83;;;15.20;99.90;;;;;;4899192;29;20445;-88
2021/08/21 03:31:40;;;;;;;0.90;0.60;;;15.20;99.90;;;;;;4899130;29;20449;-88
2021/08/21 03:34:22;;;;;;;3.50;0.87;;;15.20;99.90;;;;;;4898837;29;20822;-88
2021/08/21 03:36:57;;;;;;;1.00;0.90;;;15.20;99.90;;;;;;4899540;29;20472;-88
2021/08/21 03:39:30;;;;;;;1.80;1.10;;;15.20;99.90;;;;;;4899258;29;20452;-88
2021/08/21 03:42:21;;;;;;;0.63;0.57;;;15.20;99.90;;;;;;4898734;29;20473;-88
2021/08/21 03:47:40;;;;;;;4.20;0.70;;;15.20;99.90;;;;;;4898779;29;20945;-88
2021/08/21 03:50:15;;;;;;;2.50;0.80;;;15.20;99.90;;;;;;4898720;29;20497;-88
2021/08/21 03:52:47;;;;;;;2.10;1.20;;;15.20;99.90;;;;;;4899028;29;21024;-88
2021/08/21 03:55:24;;;;;;;1.13;0.60;;;15.10;99.90;;;;;;4898629;29;20480;-88
2021/08/21 03:58:03;;;;;;;1.17;0.80;;;15.10;99.90;;;;;;4899794;29;20543;-88
2021/08/21 04:00:37;;;;;;;2.00;1.23;;;15.00;99.90;;;;;;4898997;29;20540;-88
2021/08/21 04:03:08;;;;;;;1.30;1.13;;;15.10;99.90;;;;;;4898964;29;20571;-88
2021/08/21 04:05:41;;;;;;;2.07;1.10;;;15.00;99.90;;;;;;4898900;29;20505;-87
2021/08/21 04:08:27;;;;;;;0.73;0.60;;;15.00;99.90;;;;;;4898955;29;20449;-88
2021/08/21 04:10:58;;;;;;;1.00;0.90;;;15.00;99.90;;;;;;4898655;29;20448;-86
2021/08/21 04:13:38;;;;;;;0.40;0.40;;;15.00;99.90;;;;;;4898222;29;20473;-86
2021/08/21 04:16:20;;;;;;;1.27;0.60;;;14.90;99.90;;;;;;4898325;29;20584;-87
2021/08/21 04:18:56;;;;;;;0.70;0.67;;;15.00;99.90;;;;;;4899365;29;20469;-86
2021/08/21 04:21:23;;;;;;;1.10;1.00;;;15.00;99.90;;;;;;4898431;29;20424;-86
2021/08/21 04:23:59;;;;;;;0.50;0.50;;;15.00;99.90;;;;;;4898052;29;20973;-86
2021/08/21 04:26:31;;;;;;;1.60;0.73;;;15.00;99.90;;;;;;4898693;29;20453;-86
2021/08/21 04:29:00;;;;;;;0.63;0.50;;;15.00;99.90;;;;;;4901966;29;20872;-86
2021/08/21 04:31:41;;;;;;;0.87;0.70;;;15.00;99.90;;;;;;4902361;29;20448;-86
2021/08/21 04:34:12;;;;;;;0.60;0.60;;;14.90;99.90;;;;;;4902432;29;20414;-86
2021/08/21 04:36:43;;;;;;;2.20;1.20;;;14.90;99.90;;;;;;4901930;29;20471;-86
2021/08/21 04:39:10;;;;;;;1.17;0.60;;;15.00;99.90;;;;;;4902356;29;20536;-86
2021/08/21 04:41:43;;;;;;;1.00;0.80;;;15.00;99.90;;;;;;4901919;29;20994;-86
2021/08/21 04:44:10;;;;;;;5.33;0.80;;;15.00;99.90;;;;;;4902119;29;20449;-86
2021/08/21 04:46:37;;;;;;;1.80;1.13;;;15.00;99.90;;;;;;4902032;29;20453;-86
2021/08/21 04:49:09;;;;;;;1.27;1.00;;;15.00;99.90;;;;;;4901563;29;20459;-86
2021/08/21 04:51:42;;;;;;;0.90;0.63;;;15.10;99.90;;;;;;4901588;29;20441;-87
2021/08/21 04:54:09;;;;;;;0.80;0.50;;;15.10;99.90;;;;;;4901727;29;20441;-84
2021/08/21 04:56:36;;;;;;;1.20;0.97;;;15.20;99.90;;;;;;4901298;29;20489;-84
2021/08/21 04:59:06;;;;;;;2.10;0.83;;;15.20;99.90;;;;;;4901363;29;20441;-84
2021/08/21 05:01:33;;;;;;;1.67;0.70;;;15.30;99.90;;;;;;4901860;29;20810;-84
2021/08/21 05:04:06;;;;;;;1.40;1.10;;;15.30;99.90;;;;;;4901438;29;20476;-84
2021/08/21 05:06:33;;;;;;;2.40;1.07;;;15.40;99.90;;;;;;4901507;29;20510;-84
2021/08/21 05:09:09;;;;;;;1.90;1.60;;;15.40;99.90;;;;;;4901402;29;20461;-84
2021/08/21 05:11:39;;;;;;;0.90;0.60;;;15.40;99.90;;;;;;4901203;29;20915;-84
2021/08/21 05:17:16;;;;;;;1.13;0.60;;;15.50;99.90;;;;;;4899994;29;20496;-84
2021/08/21 05:19:48;;;;;;;3.70;0.97;;;15.50;99.90;;;;;;4901565;29;20465;-84
2021/08/21 05:22:39;;;;;;;1.10;0.73;;;15.50;99.90;;;;;;4901147;29;20477;-85
2021/08/21 05:25:12;;;;;;;1.93;1.03;;;15.60;99.90;;;;;;4900684;29;20466;-84
2021/08/21 05:27:41;;;;;;;1.70;1.57;;;15.70;99.90;;;;;;4901127;29;20555;-84
2021/08/21 05:30:17;;;;;;;1.07;0.97;;;15.70;99.90;;;;;;4900838;29;20856;-84
2021/08/21 05:32:44;;;;;;;0.90;0.90;;;15.70;99.90;;;;;;4901411;29;20921;-86
2021/08/21 05:35:19;;;;;;;0.80;0.80;;;15.70;99.90;;;;;;4901297;29;20555;-87
2021/08/21 05:37:54;;;;;;;1.33;0.93;;;15.80;99.90;;;;;;4900992;29;20449;-86
2021/08/21 05:40:25;;;;;;;2.20;1.20;;;15.80;99.90;;;;;;4900970;29;20440;-87
2021/08/21 05:42:52;;;;;;;0.70;0.70;;;15.90;99.90;;;;;;4900974;29;20457;-87
2021/08/21 05:45:22;;;;;;;2.20;1.27;;;15.90;99.90;;;;;;4901220;29;20475;-87
2021/08/21 05:47:51;;;;;;;0.93;0.73;;;16.00;99.90;;;;;;4900863;29;20445;-87
2021/08/21 05:50:29;;;;;;;1.67;1.20;;;16.00;99.90;;;;;;4900803;29;20472;-86
2021/08/21 05:52:58;;;;;;;1.43;0.80;;;16.10;99.90;;;;;;4900657;29;20477;-84
2021/08/21 05:55:33;;;;;;;1.63;0.90;;;16.20;99.90;;;;;;4900457;29;20467;-84
2021/08/21 05:58:00;;;;;;;1.00;0.87;;;16.20;99.90;;;;;;4900347;29;20440;-84
2021/08/21 06:00:32;;;;;;;1.10;0.70;;;16.20;99.90;;;;;;4900468;29;20791;-84
2021/08/21 06:03:02;;;;;;;1.03;0.93;;;16.30;99.90;;;;;;4900638;29;20473;-86
2021/08/21 06:05:29;;;;;;;3.93;1.33;;;16.40;99.90;;;;;;4900655;29;20468;-86
2021/08/21 06:07:56;;;;;;;1.47;1.00;;;16.40;99.90;;;;;;4900567;29;20958;-86
2021/08/21 06:10:28;;;;;;;1.30;1.20;;;16.40;99.90;;;;;;4900288;29;20537;-86
2021/08/21 06:12:55;;;;;;;2.10;0.97;;;16.50;99.90;;;;;;4900263;29;20923;-86
2021/08/21 06:15:45;;;;;;;1.03;0.93;;;16.60;99.90;;;;;;4899709;29;20468;-87
2021/08/21 06:18:27;;;;;;;0.73;0.70;;;16.60;99.90;;;;;;4905207;29;20437;-87
2021/08/21 06:21:09;;;;;;;1.20;0.93;;;16.60;99.90;;;;;;4900737;29;20449;-88
2021/08/21 06:26:23;;;;;;;1.07;0.80;;;16.70;99.90;;;;;;4900469;29;20783;-87
2021/08/21 06:28:56;;;;;;;1.07;0.60;;;16.80;99.90;;;;;;4901263;29;20433;-88
2021/08/21 06:31:37;;;;;;;1.50;1.10;;;16.90;99.90;;;;;;4900587;29;20453;-88
2021/08/21 06:34:04;;;;;;;0.50;0.50;;;17.00;99.90;;;;;;4900220;29;20855;-87
2021/08/21 06:39:20;;;;;;;2.30;0.70;;;17.20;99.90;;;;;;4900343;29;20449;-86
2021/08/21 06:41:47;;;;;;;2.77;1.03;;;17.30;99.90;;;;;;4900529;29;20441;-88
2021/08/21 06:44:38;;;;;;;0.80;0.80;;;17.50;99.90;;;;;;4900534;29;20417;-88
2021/08/21 06:47:28;;;;;;;1.67;1.10;;;17.60;99.90;;;;;;4899464;29;20445;-88
2021/08/21 06:50:08;;;;;;;1.73;1.50;;;17.80;99.90;;;;;;4896825;29;20465;-88
2021/08/21 06:52:38;;;;;;;1.53;0.97;;;17.90;99.90;;;;;;4900123;29;20539;-88
2021/08/21 06:55:29;;;;;;;2.10;0.80;;;18.10;99.90;;;;;;4900254;29;20807;-88
2021/08/21 06:58:00;;;;;;;2.23;1.07;;;18.20;99.90;;;;;;4899243;29;20489;-88
2021/08/21 07:00:38;;;;;;;2.40;1.17;;;18.20;99.90;;;;;;4900090;29;20422;-89
2021/08/21 07:03:46;;;;;;;1.27;1.10;;;18.20;99.90;;;;;;4899800;29;20525;-89
2021/08/21 07:06:34;;;;;;;0.87;0.87;;;18.20;99.90;;;;;;4899848;29;20459;-89
2021/08/21 07:09:02;;;;;;;1.83;1.23;;;18.30;99.90;;;;;;4898685;29;20461;-89
2021/08/21 07:11:50;;;;;;;3.43;0.90;;;18.40;99.90;;;;;;4900415;29;20560;-89
2021/08/21 07:24:19;;;;;;;3.43;1.50;;;19.20;99.90;;;;;;4898180;29;20419;-89
2021/08/21 07:33:06;;;;;;;2.30;0.97;;;19.80;99.90;;;;;;4897637;29;20469;-88
2021/08/21 07:35:32;;;;;;;1.23;0.90;;;20.00;99.90;;;;;;4898634;29;20453;-88
2021/08/21 07:37:59;;;;;;;1.00;0.80;;;20.10;99.90;;;;;;4899421;29;20491;-89
2021/08/21 07:40:28;;;;;;;0.83;0.70;;;20.20;99.90;;;;;;4899398;29;21055;-89
2021/08/21 07:43:00;;;;;;;1.30;1.03;;;20.20;99.90;;;;;;4898746;29;20496;-89
2021/08/21 07:45:30;;;;;;;1.10;1.00;;;20.30;99.90;;;;;;4899663;29;20428;-89
2021/08/21 07:48:30;;;;;;;1.00;1.00;;;20.50;99.90;;;;;;4899550;29;20456;-92
2021/08/21 07:51:01;;;;;;;2.13;0.80;;;20.70;99.90;;;;;;4900226;29;20462;-89
2021/08/21 07:53:43;;;;;;;1.27;1.00;;;20.70;99.90;;;;;;4898213;29;20810;-90
2021/08/21 07:56:20;;;;;;;1.30;1.10;;;20.90;99.90;;;;;;4899317;29;20444;-92
2021/08/21 07:59:14;;;;;;;1.37;1.27;;;21.10;99.90;;;;;;4899651;29;20851;-91
2021/08/21 08:36:37;;;;;;;2.30;1.30;;;22.10;99.90;;;;;;4853889;29;20898;-86
2021/08/21 08:39:05;;;;;;;3.37;1.00;;;22.40;99.90;;;;;;4856580;29;20490;-86
2021/08/21 08:41:32;;;;;;;1.00;1.00;;;22.50;99.90;;;;;;4868245;29;20461;-86
2021/08/21 08:44:03;;;;;;;1.33;0.87;;;22.60;99.90;;;;;;4879619;29;20485;-87
2021/08/21 08:46:30;;;;;;;0.77;0.77;;;22.70;99.90;;;;;;4879376;29;20243;-87
2021/08/21 08:49:02;;;;;;;2.07;1.37;;;22.80;99.90;;;;;;4880155;29;20224;-86
2021/08/21 08:51:35;;;;;;;1.70;0.97;;;22.80;99.90;;;;;;4880351;29;20484;-87
2021/08/21 08:54:24;;;;;;;1.40;0.90;;;22.80;99.90;;;;;;4879875;29;20280;-87
2021/08/21 08:57:09;;;;;;;1.13;0.87;;;22.80;99.90;;;;;;4877023;29;20689;-87
2021/08/21 08:59:39;;;;;;;1.30;0.80;;;23.00;99.90;;;;;;4879956;29;20566;-86
2021/08/21 09:02:08;;;;;;;1.00;0.97;;;23.20;99.90;;;;;;4879551;29;20236;-86
2021/08/21 09:04:42;;;;;;;0.80;0.80;;;23.30;99.90;;;;;;4879303;29;20303;-86
2021/08/21 09:07:11;;;;;;;2.17;1.10;;;23.30;99.90;;;;;;4879850;29;20221;-88
2021/08/21 09:10:29;;;;;;;1.97;1.30;;;23.30;99.90;;;;;;4879964;29;20212;-88
2021/08/21 09:13:35;;;;;;;1.83;1.42;;;23.40;99.90;;;;;;4879445;29;20322;-87
2021/08/21 09:16:06;;;;;;;1.63;0.90;;;23.60;99.90;;;;;;4882772;29;20212;-88
2021/08/21 09:18:47;;;;;;;4.22;1.70;;;23.70;99.90;;;;;;4883076;29;20228;-88
2021/08/21 09:22:18;;;;;;;1.60;1.40;;;23.80;99.90;;;;;;4884187;29;20216;-87
2021/08/21 09:24:52;;;;;;;1.85;1.23;;;23.90;99.90;;;;;;4882993;29;20233;-88
2021/08/21 09:34:14;;;;;;;;;;;;;;;;;;;;;
2021/08/21 09:47:51;;;;;;;1.23;1.13;;;25.10;99.90;;;;;;4825048;29;20199;-87
2021/08/21 09:54:34;;;;;;;1.30;1.20;;;25.20;99.90;;;;;;4817160;29;20212;-88
2021/08/21 10:03:12;;;;;;;1.85;1.25;;;25.30;99.90;;;;;;4815132;29;20256;-89
2021/08/21 10:05:59;;;;;;;1.60;1.40;;;25.30;99.90;;;;;;4866832;29;20264;-90
2021/08/21 10:08:29;;;;;;;2.97;1.70;;;25.40;99.90;;;;;;4882504;29;20566;-89
2021/08/21 10:14:23;;;;;;;1.73;1.63;;;25.50;99.90;;;;;;4881738;29;20173;-84
2021/08/21 10:20:28;;;;;;;2.85;1.10;;;25.60;99.90;;;;;;4860842;29;20621;-85
2021/08/21 10:22:56;;;;;;;1.77;1.50;;;25.60;99.90;;;;;;4861195;29;20241;-85
2021/08/21 10:28:32;;;;;;;1.30;1.13;;;25.70;99.90;;;;;;4882089;29;20209;-87
2021/08/21 10:46:11;;;;;;;2.00;1.20;;;26.50;99.90;;;;;;4899951;29;20247;-87
2021/08/21 10:48:55;;;;;;;1.48;1.38;;;26.50;99.90;;;;;;4899344;29;20671;-88
2021/08/21 11:02:16;;;;;;;1.92;1.40;;;27.90;99.90;;;;;;4841496;29;20274;-87
2021/08/21 11:04:44;;;;;;;1.60;1.50;;;27.90;99.90;;;;;;4842009;29;20640;-86
2021/08/21 11:07:40;;;;;;;1.38;1.27;;;27.80;99.90;;;;;;4860738;29;20213;-88
2021/08/21 11:10:30;;;;;;;1.52;1.17;;;27.70;99.90;;;;;;4885720;29;20214;-87
2021/08/21 11:12:57;;;;;;;2.75;2.17;;;27.60;99.90;;;;;;4899548;29;20253;-86
2021/08/21 11:15:30;;;;;;;2.95;1.35;;;27.40;99.90;;;;;;4899596;29;20208;-87
2021/08/21 11:18:19;;;;;;;1.55;1.30;;;27.20;99.90;;;;;;4899286;29;20244;-86
2021/08/21 11:20:48;;;;;;;3.03;1.20;;;27.10;99.90;;;;;;4898961;29;20219;-86
2021/08/21 11:23:19;;;;;;;1.60;1.35;;;27.10;99.90;;;;;;4898212;29;20235;-86
2021/08/21 11:25:46;;;;;;;1.95;1.80;;;27.00;99.90;;;;;;4899171;29;20283;-87
2021/08/21 11:28:20;;;;;;;1.90;1.33;;;26.80;99.90;;;;;;4899425;29;20214;-87
2021/08/21 11:31:24;;;;;;;;;;;;;;;;;;;;;
2021/08/21 11:33:55;;;;;;;2.35;1.88;;;26.70;99.90;;;;;;4899028;29;20220;-90
2021/08/21 11:40:00;;;;;;;1.33;1.20;;;26.70;99.90;;;;;;4897832;29;20235;-88
2021/08/21 11:43:13;;;;;;;2.30;1.73;;;26.60;99.90;;;;;;4898731;29;20244;-87
2021/08/21 11:45:59;;;;;;;1.92;1.25;;;26.70;99.90;;;;;;4898306;29;20231;-88
2021/08/21 11:52:00;;;;;;;1.70;1.33;;;26.80;99.90;;;;;;4894947;29;20218;-87
2021/08/21 11:55:11;;;;;;;1.67;1.25;;;26.80;99.90;;;;;;4899100;29;20294;-87
2021/08/21 11:57:42;;;;;;;2.13;1.15;;;26.70;99.90;;;;;;4898740;29;20232;-87
2021/08/21 12:00:22;;;;;;;1.17;1.08;;;26.60;99.90;;;;;;4899336;29;20220;-87
2021/08/21 12:02:51;;;;;;;2.30;1.23;;;26.50;99.90;;;;;;4898570;29;20712;-88
2021/08/21 12:05:38;;;;;;;1.00;1.00;;;26.50;99.90;;;;;;4898816;29;20220;-88
2021/08/21 12:08:31;;;;;;;1.38;1.17;;;26.60;99.90;;;;;;4899220;29;20216;-88
2021/08/21 12:10:59;;;;;;;1.85;1.35;;;26.60;99.90;;;;;;4899058;29;20271;-88
2021/08/21 12:13:28;;;;;;;1.98;1.58;;;26.70;99.90;;;;;;4898687;29;20232;-87
2021/08/21 12:15:56;;;;;;;1.20;1.10;;;26.70;99.90;;;;;;4898597;29;20212;-88
2021/08/21 12:19:19;;;;;;;1.25;1.15;;;26.60;99.90;;;;;;4898749;29;20232;-87
2021/08/21 12:21:47;;;;;;;1.23;0.80;;;26.50;99.90;;;;;;4898440;29;20217;-87
2021/08/21 12:24:18;;;;;;;1.55;1.00;;;26.40;99.90;;;;;;4898535;29;20275;-88
2021/08/21 12:26:48;;;;;;;1.58;1.10;;;26.40;99.90;;;;;;4899444;29;20608;-89
2021/08/21 12:29:28;;;;;;;1.10;1.00;;;26.30;99.90;;;;;;4898697;29;20208;-88
2021/08/21 12:31:57;;;;;;;1.90;1.67;;;26.40;99.90;;;;;;4898816;29;20243;-88
2021/08/21 12:34:32;;;;;;;1.80;1.70;;;26.30;99.90;;;;;;4898733;29;20219;-88
2021/08/21 12:37:12;;;;;;;1.55;1.10;;;26.20;99.90;;;;;;4898676;29;20208;-88
2021/08/21 12:39:42;;;;;;;2.15;1.23;;;26.20;99.90;;;;;;4899017;29;20212;-88
2021/08/21 12:42:20;;;;;;;1.00;0.90;;;26.00;99.90;;;;;;4898711;29;20239;-87
2021/08/21 12:44:47;;;;;;;1.83;1.30;;;26.10;99.90;;;;;;4898626;29;20199;-88
2021/08/21 12:47:16;;;;;;;1.77;1.67;;;26.10;99.90;;;;;;4898333;29;20732;-90
2021/08/21 12:49:45;;;;;;;2.40;1.55;;;26.00;99.90;;;;;;4902344;29;20235;-89
2021/08/21 12:52:13;;;;;;;3.00;1.80;;;26.00;99.90;;;;;;4902501;29;20734;-87
2021/08/21 12:54:43;;;;;;;1.73;1.40;;;25.90;99.90;;;;;;4902707;29;20212;-88
2021/08/21 12:57:14;;;;;;;2.72;1.75;;;25.80;99.90;;;;;;4902045;29;20223;-86
2021/08/21 12:59:42;;;;;;;2.35;1.40;;;25.70;99.90;;;;;;4902105;29;20213;-87
2021/08/21 13:02:11;;;;;;;1.10;1.10;;;25.70;99.90;;;;;;4902070;29;20224;-86
2021/08/21 13:04:40;;;;;;;2.17;1.30;;;25.80;99.90;;;;;;4902182;29;20206;-87
2021/08/21 13:07:11;;;;;;;1.63;1.30;;;25.80;99.90;;;;;;4902010;29;20276;-88
2021/08/21 13:09:39;;;;;;;1.38;1.27;;;25.70;99.90;;;;;;4902189;29;20728;-91
2021/08/21 13:12:25;;;;;;;0.93;0.90;;;25.70;99.90;;;;;;4902684;29;20236;-89
2021/08/21 13:14:52;;;;;;;2.05;1.38;;;25.60;99.90;;;;;;4902282;29;20271;-89
2021/08/21 13:17:19;;;;;;;1.38;1.10;;;25.60;99.90;;;;;;4901916;29;20208;-89
2021/08/21 13:19:54;;;;;;;1.52;1.42;;;25.50;99.90;;;;;;4901954;29;20200;-89
2021/08/21 13:22:27;;;;;;;1.60;1.50;;;25.60;99.90;;;;;;4902412;29;20235;-89
2021/08/21 13:24:54;;;;;;;1.40;1.27;;;25.60;99.90;;;;;;4901752;29;20259;-87
2021/08/21 13:27:25;;;;;;;1.48;0.90;;;25.60;99.90;;;;;;4901944;29;20295;-88
2021/08/21 13:30:07;;;;;;;1.23;1.13;;;25.50;99.90;;;;;;4901856;29;20222;-90
2021/08/21 13:32:34;;;;;;;1.73;1.10;;;25.50;99.90;;;;;;4901768;29;20319;-89
2021/08/21 13:35:08;;;;;;;2.10;1.50;;;25.50;99.90;;;;;;4901695;29;20246;-90
2021/08/21 13:37:36;;;;;;;2.00;1.38;;;25.50;99.90;;;;;;4902388;29;20219;-85
2021/08/21 13:40:07;;;;;;;1.10;1.00;;;25.60;99.90;;;;;;4901812;29;20218;-90
2021/08/21 13:42:47;;;;;;;1.60;1.48;;;25.60;99.90;;;;;;4901572;29;20307;-89
2021/08/21 13:45:53;;;;;;;1.35;1.08;;;25.60;99.90;;;;;;4902362;29;20208;-90
2021/08/21 13:48:24;;;;;;;0.80;0.80;;;25.50;99.90;;;;;;4901714;29;20208;-89
2021/08/21 13:50:51;;;;;;;2.67;1.25;;;25.40;99.90;;;;;;4902376;29;20216;-90
2021/08/21 13:53:18;;;;;;;1.92;1.17;;;25.40;99.90;;;;;;4901814;29;20232;-91
2021/08/21 13:55:45;;;;;;;3.88;1.35;;;25.40;99.90;;;;;;4901731;29;20580;-89
2021/08/21 13:58:13;;;;;;;1.42;1.10;;;25.40;99.90;;;;;;4902135;29;20238;-89
2021/08/21 14:00:40;;;;;;;0.98;0.98;;;25.40;99.90;;;;;;4901109;29;20677;-89
2021/08/21 14:03:07;;;;;;;1.35;1.10;;;25.30;99.90;;;;;;4901561;29;20338;-89
2021/08/21 14:05:34;;;;;;;1.23;1.13;;;25.30;99.90;;;;;;4901482;29;20219;-88
2021/08/21 14:08:03;;;;;;;1.10;1.00;;;25.30;99.90;;;;;;4900948;29;20287;-88
2021/08/21 14:10:30;;;;;;;1.42;1.20;;;25.40;99.90;;;;;;4901295;29;20295;-89
2021/08/21 14:12:57;;;;;;;1.52;1.23;;;25.40;99.90;;;;;;4901189;29;20224;-89
2021/08/21 14:15:25;;;;;;;1.58;1.33;;;25.50;99.90;;;;;;4901214;29;20219;-89
2021/08/21 14:17:55;;;;;;;1.30;0.95;;;25.50;99.90;;;;;;4901355;29;20640;-89
2021/08/21 14:20:22;;;;;;;1.73;1.33;;;25.40;99.90;;;;;;4901014;29;20661;-90
2021/08/21 14:22:49;;;;;;;4.68;1.45;;;25.40;99.90;;;;;;4900755;29;20259;-87
2021/08/21 14:25:16;;;;;;;1.80;1.30;;;25.40;99.90;;;;;;4906109;29;20295;-89
2021/08/21 14:27:43;;;;;;;1.58;1.00;;;25.30;99.90;;;;;;4900845;29;20729;-89
2021/08/21 14:30:16;;;;;;;2.00;1.08;;;25.30;99.90;;;;;;4900893;29;20239;-90
2021/08/21 14:32:47;;;;;;;1.20;1.10;;;25.40;99.90;;;;;;4900369;29;20271;-89
2021/08/21 14:35:14;;;;;;;1.45;1.35;;;25.50;99.90;;;;;;4901370;29;20287;-89
2021/08/21 14:37:41;;;;;;;1.40;1.00;;;25.50;99.90;;;;;;4901141;29;20299;-88
2021/08/21 14:40:08;;;;;;;1.65;1.48;;;25.60;99.90;;;;;;4900479;29;20219;-89
2021/08/21 14:42:35;;;;;;;1.30;1.20;;;25.60;99.90;;;;;;4896617;29;20228;-89
2021/08/21 14:45:02;;;;;;;1.25;1.17;;;25.60;99.90;;;;;;4899976;29;20229;-85
2021/08/21 14:47:31;;;;;;;1.08;0.98;;;25.60;99.90;;;;;;4899802;29;20576;-87
2021/08/21 14:50:00;;;;;;;1.60;1.42;;;25.60;99.90;;;;;;4900377;29;20218;-85
2021/08/21 14:52:34;;;;;;;2.85;1.60;;;25.50;99.90;;;;;;4902084;29;20264;-89
2021/08/21 14:55:36;;;;;;;4.30;1.92;;;25.40;99.90;;;;;;4904325;29;20208;-88
2021/08/21 15:01:38;;;;;;;1.35;1.25;;;25.20;99.90;;;;;;4851059;29;20195;-88
2021/08/21 15:04:05;;;;;;;3.83;1.50;;;25.10;99.90;;;;;;4897542;29;20212;-80
2021/08/21 15:09:24;;;;;;;1.67;1.17;;;25.00;99.90;;;;;;4900146;29;20621;-89
2021/08/21 15:12:02;;;;;;;1.40;1.10;;;24.90;99.90;;;;;;4900669;29;20197;-89
2021/08/21 15:14:38;;;;;;;1.33;1.20;;;24.90;99.90;;;;;;4899629;29;20199;-85
2021/08/21 15:17:29;;;;;;;1.17;1.17;;;24.70;99.90;;;;;;4893794;29;20275;-86
2021/08/21 15:20:06;;;;;;;2.05;1.10;;;24.60;99.90;;;;;;4911481;29;20228;-89
2021/08/21 15:22:43;;;;;;;1.40;1.30;;;24.60;99.90;;;;;;4899143;29;20235;-89
2021/08/21 15:25:12;;;;;;;2.03;1.35;;;24.50;99.90;;;;;;4899867;29;20196;-89
2021/08/21 15:28:05;;;;;;;1.38;0.95;;;24.50;99.90;;;;;;4899157;29;20275;-89
2021/08/21 15:30:32;;;;;;;1.45;1.35;;;24.40;99.90;;;;;;4899988;29;20284;-89
2021/08/21 15:34:02;;;;;;;1.15;0.98;;;24.30;99.90;;;;;;4898995;29;20247;-88
2021/08/21 15:36:57;;;;;;;1.95;0.98;;;24.30;99.90;;;;;;4899410;29;20196;-89
2021/08/21 15:45:09;;;;;;;2.42;1.88;;;24.20;99.90;;;;;;4897185;29;20214;-89
2021/08/21 15:47:39;;;;;;;1.02;1.00;;;24.20;99.90;;;;;;4899453;29;20211;-89
2021/08/21 15:50:07;;;;;;;1.75;1.45;;;24.20;99.90;;;;;;4899442;29;20211;-89
2021/08/21 15:52:34;;;;;;;3.67;1.15;;;24.20;99.90;;;;;;4899097;29;20224;-89
2021/08/21 15:55:02;;;;;;;2.45;1.30;;;24.30;99.90;;;;;;4899524;29;20215;-89
2021/08/21 15:57:29;;;;;;;3.38;1.70;;;24.20;99.90;;;;;;4899521;29;20204;-89
2021/08/21 15:59:56;;;;;;;1.20;1.02;;;24.20;99.90;;;;;;4898904;29;20254;-89
2021/08/21 16:02:23;;;;;;;2.22;1.95;;;24.20;99.90;;;;;;4899158;29;20235;-89
2021/08/21 16:04:50;;;;;;;1.48;1.27;;;24.20;99.90;;;;;;4899233;29;20218;-89
2021/08/21 16:07:16;;;;;;;1.48;1.30;;;24.20;99.90;;;;;;4899333;29;20586;-89
2021/08/21 16:09:43;;;;;;;1.35;1.10;;;24.10;99.90;;;;;;4899060;29;20208;-89
2021/08/21 16:12:12;;;;;;;2.42;1.10;;;24.00;99.90;;;;;;4899161;29;20228;-89
2021/08/21 16:14:38;;;;;;;2.13;1.92;;;24.00;99.90;;;;;;4899688;29;20541;-89
2021/08/21 16:17:05;;;;;;;1.50;0.90;;;24.10;99.90;;;;;;4899136;29;20219;-89
2021/08/21 16:19:32;;;;;;;1.20;1.10;;;24.10;99.90;;;;;;4899058;29;20236;-89
2021/08/21 16:22:00;;;;;;;1.30;0.93;;;24.20;99.90;;;;;;4899401;29;20226;-90
2021/08/21 16:27:15;;;;;;;1.63;1.15;;;24.30;99.90;;;;;;4898457;29;20268;-90
2021/08/21 16:29:41;;;;;;;1.47;1.27;;;24.30;99.90;;;;;;4899449;29;20212;-90
2021/08/21 16:32:08;;;;;;;1.30;0.93;;;24.20;99.90;;;;;;4899075;29;20244;-90
2021/08/21 16:34:36;;;;;;;2.07;1.37;;;24.10;99.90;;;;;;4899226;29;20576;-90
2021/08/21 16:37:03;;;;;;;2.60;2.10;;;24.10;99.90;;;;;;4899252;29;20215;-90
2021/08/21 16:39:33;;;;;;;2.13;1.67;;;24.20;99.90;;;;;;4898883;29;20231;-90
2021/08/21 16:42:02;;;;;;;2.53;2.22;;;24.20;99.90;;;;;;4899892;29;20414;-91
2021/08/21 16:44:33;;;;;;;2.40;1.52;;;24.10;99.90;;;;;;4899111;29;20204;-90
2021/08/21 16:47:07;;;;;;;2.13;1.02;;;24.10;99.90;;;;;;4898835;29;20634;-90
2021/08/21 16:49:34;;;;;;;2.33;1.83;;;24.00;99.90;;;;;;4899378;29;20291;-90
2021/08/21 16:52:08;;;;;;;3.00;2.20;;;23.90;99.90;;;;;;4899241;29;20230;-91
2021/08/21 16:54:40;;;;;;;1.37;1.17;;;23.90;99.90;;;;;;4899736;29;20560;-90
2021/08/21 16:57:06;;;;;;;0.90;0.90;;;23.90;99.90;;;;;;4898938;29;20220;-90
2021/08/21 16:59:37;;;;;;;2.03;1.30;;;23.80;99.90;;;;;;4898769;29;20771;-90
2021/08/21 17:02:05;;;;;;;1.70;1.27;;;23.80;99.90;;;;;;4898766;29;20327;-90
2021/08/21 17:04:33;;;;;;;2.90;1.53;;;23.80;99.90;;;;;;4898975;29;20212;-90
2021/08/21 17:07:01;;;;;;;1.20;1.10;;;23.80;99.90;;;;;;4898904;29;20223;-90
2021/08/21 17:09:31;;;;;;;1.37;1.03;;;23.70;99.90;;;;;;4898862;29;20219;-89
2021/08/21 17:11:57;;;;;;;1.60;1.50;;;23.70;99.90;;;;;;4898822;29;20231;-90
2021/08/21 17:14:28;;;;;;;1.47;1.37;;;23.60;99.90;;;;;;4898841;29;20223;-90
2021/08/21 17:16:57;;;;;;;1.33;1.13;;;23.60;99.90;;;;;;4898958;29;20196;-90
2021/08/21 17:19:26;;;;;;;2.30;1.43;;;23.50;99.90;;;;;;4898730;29;20238;-90